You are not logged in, Click here to log in
Palma De Mallorca Airport / LEPA Palma De Mallorca
ICAO: LEPA Country: Palma De Mallorca
Latitude: 39.5517 Longitude: 2.73881
Total Arrivals: 3 Total Departures: 2
Latest Arrival: VY3904 (LEBL-LEPA)Arthur. Kung Latest Departure: FS9025 (LEPA-LFMN)Arthur. Kung
Scenery:
METAR : LEPA 110430Z 05011KT 9999 FEW008 23/21 Q1014 NOSIG

Palma De Mallorca Airport

You are accessing this site from IP address 34.229.119.29. Virtual Airline. CMS by phpVMS.Website designed by Zumeweb and edited by Theo Bearman.
There is 1 User(s) Online: | Lun Wang | and 19 Guest(s) Online.
All information on this site is for fight simulation purposes only. This site is for flight logging for pilots of Virtual Airline&模擬飛行論壇 FlySim only.